Avioradar koristi kolačiće da bi Vam omogućio jednostavnije i ugodnije korištenje stranice. 

AVIORADAR - Novosti i informacije

Poremećaj 10.03.2017.

Marina Hinić.

f_800_450_16119285_00_images_SQUAWK_bura_dbv_10mar17.jpg

Druga marčana bura na djelu 

Iako je jačina vjetra danas i na splitskom području u sličnim vrijednostima, ne stvara probleme u zračnom prometu kao što je to slučaj u dubrovačkoj zračnoj luci.

- OU668/CTN8Y (STA 1245LT) iz Zagreba ->preusmjeren na SPU

METAR LDDU 101200Z 36026G45KT 310V050 9999 FEW050 15/M01 Q1007 NOSIG

- OU662/CTN8A (STA 1540LT) iz Zagreba -> u prilazu (NERRA 7A) - Go Around (G40KT) - Holding (KLP 4000FT) - prilaz RWY12 - Go Around (G43KT) -> preusmjeren na SPU

METAR LDDU 101430Z 04020G38KT 330V100 9999 FEW050 13/M03 Q1007 NOSIG

- OU664/CTN664 (STA 2205LT) iz Zagreba -> preusmjeren na SPU

METAR LDDU 102100Z 03030G43KT 350V070 CAVOK 10/M01 Q1007 NOSIG

- Prema TAF prognozi i upozorenju za ZL Dubrovnik, slična situacija se može očekivati i u nastavku dana 

TAF AMD LDDU 101305Z 1013/1112 02025G45KT CAVOK
                     TX15/1111Z TN10/1105Z
               TEMPO 1013/1024 03035G60KT
               BECMG 1102/1104 34015KT
        PROB40 TEMPO 1103/1112 VRB18G35KT
----------------------------------------------------------------------------------------------------------
Report is a update over the previous report.
Location: LDDU
DUBROVNIK - CILIPI - CROATIA
Latitude: 42°33'41"N - Longitude: 018°16'06"E.
Magnetic declination: 4.02°E
Sunrise: 05:08 UTC
Sunset: 16:47 UTC
Report emitted the day: 10, time 13:05 UTC
Friday 10 March 2017 14:05 local time.
The forecast valid time are from day of the month: 10 time: 13:00 UTC (Friday 10 March 2017 14:00 local time) to day of the month: 11 time: 12:00 UTC (Saturday 11 March 2017 13:00 local time).
Wind: True direction = 020 degrees, speed: 25 knots (46 km/h) (13 m/s), with Gusts of maximum speed 45 knots (83 km/h) (23 m/s).
Runway 12, length 10827 feet, altitude 519 feet: Cross Wind 24 KT Left - Centerline Wind 6 KT rear.
Runway 30, length 10827 feet, altitude 484 feet: Cross Wind 24 KT Right - Centerline Wind 6 KT front.
CAVOK conditions: Visibility 10 km or more,
no cloud below 5,000 feet or below the MSA (whichever is greater),
no cumulonimbus, and no significant weather phenomena in
the aerodrome or its vicinity.
WORH60 LDDU 101229
LDDU AD WRNG 1 VALID 101300/110000
SFC WSPD 30KT MAX 50 FCST NC=

 

Foto: Ilustracija Avioradar-arhiva, Meteoadriatic, Flightradar24

Twitter